createdAt,value
2017-02-09T00:00:31.529Z,-0.36
2017-02-09T00:01:12.104Z,-0.36
2017-02-09T00:01:52.732Z,-0.46
2017-02-09T00:02:33.378Z,-0.41
2017-02-09T00:03:14.034Z,-0.43
2017-02-09T00:03:54.688Z,-0.49
2017-02-09T00:04:35.258Z,-0.38
2017-02-09T00:05:15.913Z,-0.44
2017-02-09T00:05:56.498Z,-0.5
2017-02-09T00:06:37.101Z,-0.39
2017-02-09T00:07:17.650Z,-0.39
2017-02-09T00:07:58.323Z,-0.43
2017-02-09T00:08:39.009Z,-0.44
2017-02-09T00:09:19.605Z,-0.5
2017-02-09T00:10:00.179Z,-0.39
2017-02-09T00:10:40.841Z,-0.47
2017-02-09T00:11:22.486Z,-0.39
2017-02-09T00:12:03.055Z,-0.38
2017-02-09T00:12:43.719Z,-0.44
2017-02-09T00:13:24.343Z,-0.36
2017-02-09T00:14:04.924Z,-0.41
2017-02-09T00:14:45.563Z,-0.34
2017-02-09T00:15:26.198Z,-0.35
2017-02-09T00:16:06.798Z,-0.41
2017-02-09T00:16:47.434Z,-0.36
2017-02-09T00:17:28.055Z,-0.38
2017-02-09T00:18:08.612Z,-0.39
2017-02-09T00:18:49.178Z,-0.34
2017-02-09T00:19:29.809Z,-0.35
2017-02-09T00:20:10.463Z,-0.34
2017-02-09T00:20:51.116Z,-0.39
2017-02-09T00:21:31.762Z,-0.32
2017-02-09T00:22:12.425Z,-0.31
2017-02-09T00:22:53.075Z,-0.29
2017-02-09T00:23:33.730Z,-0.31
2017-02-09T00:24:14.370Z,-0.38
2017-02-09T00:24:54.949Z,-0.34
2017-02-09T00:25:35.584Z,-0.31
2017-02-09T00:26:16.183Z,-0.31
2017-02-09T00:26:56.786Z,-0.35
2017-02-09T00:27:37.356Z,-0.36
2017-02-09T00:28:17.994Z,-0.29
2017-02-09T00:28:58.592Z,-0.28
2017-02-09T00:29:39.154Z,-0.35
2017-02-09T00:30:19.771Z,-0.36
2017-02-09T00:31:00.405Z,-0.31
2017-02-09T00:31:40.982Z,-0.34
2017-02-09T00:32:21.609Z,-0.34
2017-02-09T00:33:02.253Z,-0.34
2017-02-09T00:33:42.824Z,-0.32
2017-02-09T00:34:23.488Z,-0.35
2017-02-09T00:35:04.109Z,-0.39
2017-02-09T00:35:44.700Z,-0.41
2017-02-09T00:36:25.334Z,-0.34
2017-02-09T00:37:05.964Z,-0.36
2017-02-09T00:37:46.547Z,-0.31
2017-02-09T00:38:27.177Z,-0.29
2017-02-09T00:39:07.821Z,-0.28
2017-02-09T00:39:48.392Z,-0.25
2017-02-09T00:40:29.049Z,-0.31
2017-02-09T00:41:09.628Z,-0.35
2017-02-09T00:41:50.228Z,-0.38
2017-02-09T00:42:30.821Z,-0.32
2017-02-09T00:43:12.224Z,-0.31
2017-02-09T00:43:52.855Z,-0.36
2017-02-09T00:44:33.418Z,-0.25
2017-02-09T00:45:14.029Z,-0.34
2017-02-09T00:45:54.608Z,-0.38
2017-02-09T00:46:35.309Z,-0.38
2017-02-09T00:47:15.900Z,-0.29
2017-02-09T00:47:56.534Z,-0.36
2017-02-09T00:48:37.175Z,-0.28
2017-02-09T00:49:17.751Z,-0.35
2017-02-09T00:49:58.390Z,-0.41
2017-02-09T00:50:38.954Z,-0.38
2017-02-09T00:51:19.510Z,-0.36
2017-02-09T00:52:00.145Z,-0.32
2017-02-09T00:52:40.740Z,-0.43
2017-02-09T00:53:21.298Z,-0.31
2017-02-09T00:54:01.898Z,-0.31
2017-02-09T00:54:42.534Z,-0.28
2017-02-09T00:55:23.103Z,-0.35
2017-02-09T00:56:03.755Z,-0.28
2017-02-09T00:56:44.336Z,-0.31
2017-02-09T00:57:24.938Z,-0.31
2017-02-09T00:58:05.496Z,-0.38
2017-02-09T00:58:46.149Z,-0.41
2017-02-09T00:59:26.754Z,-0.34
2017-02-09T01:00:07.445Z,-0.28
2017-02-09T01:00:48.025Z,-0.35
2017-02-09T01:01:28.679Z,-0.34
2017-02-09T01:02:09.263Z,-0.36
2017-02-09T01:02:49.853Z,-0.38
2017-02-09T01:03:30.431Z,-0.41
2017-02-09T01:04:11.081Z,-0.29
2017-02-09T01:04:51.669Z,-0.36
2017-02-09T01:05:32.316Z,-0.39
2017-02-09T01:06:12.966Z,-0.34
2017-02-09T01:06:53.622Z,-0.35
2017-02-09T01:07:34.281Z,-0.28
2017-02-09T01:08:15.540Z,-0.38
2017-02-09T01:08:56.195Z,-0.28
2017-02-09T01:09:36.843Z,-0.44
2017-02-09T01:10:17.446Z,-0.25
2017-02-09T01:10:58.012Z,-0.32
2017-02-09T01:11:38.673Z,-0.41
2017-02-09T01:12:19.266Z,-0.36
2017-02-09T01:12:59.953Z,-0.34
2017-02-09T01:13:40.532Z,-0.35
2017-02-09T01:14:21.182Z,-0.36
2017-02-09T01:15:01.772Z,-0.34
2017-02-09T01:15:42.321Z,-0.39
2017-02-09T01:16:23.039Z,-0.29
2017-02-09T01:17:04.619Z,-0.35
2017-02-09T01:17:45.260Z,-0.38
2017-02-09T01:18:25.924Z,-0.32
2017-02-09T01:19:06.583Z,-0.32
2017-02-09T01:19:47.218Z,-0.32
2017-02-09T01:20:27.816Z,-0.32
2017-02-09T01:21:08.413Z,-0.38
2017-02-09T01:21:48.993Z,-0.38
2017-02-09T01:22:29.636Z,-0.34
2017-02-09T01:23:10.213Z,-0.29
2017-02-09T01:23:50.812Z,-0.31
2017-02-09T01:24:31.371Z,-0.43
2017-02-09T01:25:12.035Z,-0.34
2017-02-09T01:25:52.682Z,-0.35
2017-02-09T01:26:40.228Z,-0.34
2017-02-09T01:27:20.855Z,-0.36
2017-02-09T01:28:01.507Z,-0.38
2017-02-09T01:28:42.165Z,-0.36
2017-02-09T01:29:22.807Z,-0.35
2017-02-09T01:30:03.407Z,-0.41
2017-02-09T01:30:43.998Z,-0.34
2017-02-09T01:31:24.614Z,-0.32
2017-02-09T01:32:05.219Z,-0.26
2017-02-09T01:32:45.824Z,-0.38
2017-02-09T01:33:26.404Z,-0.38
2017-02-09T01:34:06.972Z,-0.35
2017-02-09T01:34:47.627Z,-0.32
2017-02-09T01:35:28.270Z,-0.38
2017-02-09T01:36:08.832Z,-0.31
2017-02-09T01:36:49.395Z,-0.34
2017-02-09T01:37:30.023Z,-0.35
2017-02-09T01:38:10.580Z,-0.36
2017-02-09T01:38:51.150Z,-0.38
2017-02-09T01:39:31.772Z,-0.34
2017-02-09T01:40:12.322Z,-0.39
2017-02-09T01:40:52.997Z,-0.29
2017-02-09T01:41:33.629Z,-0.34
2017-02-09T01:42:14.185Z,-0.38
2017-02-09T01:42:54.863Z,-0.41
2017-02-09T01:43:35.480Z,-0.38
2017-02-09T01:44:16.059Z,-0.32
2017-02-09T01:44:56.723Z,-0.28
2017-02-09T01:45:37.398Z,-0.32
2017-02-09T01:46:18.104Z,-0.29
2017-02-09T01:46:58.667Z,-0.32
2017-02-09T01:47:39.229Z,-0.41
2017-02-09T01:48:19.911Z,-0.26
2017-02-09T01:49:00.512Z,-0.34
2017-02-09T01:49:41.095Z,-0.34
2017-02-09T01:50:21.766Z,-0.34
2017-02-09T01:51:02.364Z,-0.28
2017-02-09T01:51:42.916Z,-0.39
2017-02-09T01:52:23.583Z,-0.35
2017-02-09T01:53:04.219Z,-0.36
2017-02-09T01:53:44.788Z,-0.36
2017-02-09T01:54:25.425Z,-0.36
2017-02-09T01:55:06.069Z,-0.36
2017-02-09T01:55:46.638Z,-0.41
2017-02-09T01:56:27.304Z,-0.32
2017-02-09T01:57:07.955Z,-0.36
2017-02-09T01:57:48.615Z,-0.35
2017-02-09T01:58:29.261Z,-0.38
2017-02-09T01:59:09.915Z,-0.41
2017-02-09T01:59:50.483Z,-0.43
2017-02-09T02:00:31.176Z,-0.34
2017-02-09T02:01:11.851Z,-0.35
2017-02-09T02:01:52.404Z,-0.44
2017-02-09T02:02:33.059Z,-0.36
2017-02-09T02:03:13.657Z,-0.39
2017-02-09T02:03:54.258Z,-0.39
2017-02-09T02:04:34.836Z,-0.38
2017-02-09T02:05:15.530Z,-0.47
2017-02-09T02:05:56.213Z,-0.41
2017-02-09T02:06:36.774Z,-0.36
2017-02-09T02:07:18.461Z,-0.46
2017-02-09T02:07:59.095Z,-0.39
2017-02-09T02:08:39.700Z,-0.43
2017-02-09T02:09:20.320Z,-0.47
2017-02-09T02:10:00.949Z,-0.38
2017-02-09T02:10:41.521Z,-0.41
2017-02-09T02:11:22.164Z,-0.39
2017-02-09T02:12:02.807Z,-0.36
2017-02-09T02:12:43.368Z,-0.49
2017-02-09T02:13:24.020Z,-0.47
2017-02-09T02:14:04.661Z,-0.49
2017-02-09T02:14:45.214Z,-0.49
2017-02-09T02:15:25.876Z,-0.46
2017-02-09T02:16:06.526Z,-0.44
2017-02-09T02:16:47.188Z,-0.49
2017-02-09T02:17:27.850Z,-0.44
2017-02-09T02:18:08.490Z,-0.43
2017-02-09T02:18:49.265Z,-0.5
2017-02-09T02:19:29.905Z,-0.49
2017-02-09T02:20:10.571Z,-0.46
2017-02-09T02:20:51.189Z,-0.44
2017-02-09T02:21:31.766Z,-0.47
2017-02-09T02:22:12.399Z,-0.49
2017-02-09T02:22:53.046Z,-0.49
2017-02-09T02:23:33.634Z,-0.53
2017-02-09T02:24:14.281Z,-0.46
2017-02-09T02:24:55.007Z,-0.49
2017-02-09T02:25:35.760Z,-0.46
2017-02-09T02:26:16.514Z,-0.43
2017-02-09T02:26:57.179Z,-0.53
2017-02-09T02:27:37.924Z,-0.43
2017-02-09T02:28:18.679Z,-0.41
2017-02-09T02:28:59.432Z,-0.46
2017-02-09T02:29:40.210Z,-0.54
2017-02-09T02:30:20.945Z,-0.44
2017-02-09T02:31:01.700Z,-0.47
2017-02-09T02:31:42.454Z,-0.56
2017-02-09T02:32:23.106Z,-0.46
2017-02-09T02:33:03.863Z,-0.5
2017-02-09T02:33:44.618Z,-0.46
2017-02-09T02:34:25.272Z,-0.5
2017-02-09T02:35:05.851Z,-0.5
2017-02-09T02:35:46.595Z,-0.54
2017-02-09T02:36:27.333Z,-0.47
2017-02-09T02:37:07.897Z,-0.53
2017-02-09T02:37:48.561Z,-0.53
2017-02-09T02:38:29.196Z,-0.43
2017-02-09T02:39:09.748Z,-0.56
2017-02-09T02:39:50.424Z,-0.54
2017-02-09T02:40:31.045Z,-0.57
2017-02-09T02:41:11.618Z,-0.5
2017-02-09T02:41:52.296Z,-0.54
2017-02-09T02:42:32.917Z,-0.47
2017-02-09T02:43:13.587Z,-0.52
2017-02-09T02:43:54.226Z,-0.53
2017-02-09T02:44:34.887Z,-0.43
2017-02-09T02:45:15.530Z,-0.61
2017-02-09T02:45:56.198Z,-0.46
2017-02-09T02:46:36.817Z,-0.53
2017-02-09T02:47:17.497Z,-0.57
2017-02-09T02:47:58.150Z,-0.52
2017-02-09T02:48:38.799Z,-0.52
2017-02-09T02:49:19.455Z,-0.53
2017-02-09T02:50:00.129Z,-0.56
2017-02-09T02:50:40.769Z,-0.54
2017-02-09T02:51:21.429Z,-0.54
2017-02-09T02:52:02.074Z,-0.52
2017-02-09T02:52:42.721Z,-0.53
2017-02-09T02:53:23.386Z,-0.59
2017-02-09T02:54:04.033Z,-0.54
2017-02-09T02:54:44.667Z,-0.56
2017-02-09T02:55:25.263Z,-0.56
2017-02-09T02:56:05.866Z,-0.53
2017-02-09T02:56:46.417Z,-0.53
2017-02-09T02:57:27.080Z,-0.54
2017-02-09T02:58:07.682Z,-0.52
2017-02-09T02:58:48.273Z,-0.56
2017-02-09T02:59:28.832Z,-0.54
2017-02-09T03:00:09.499Z,-0.54
2017-02-09T03:00:50.139Z,-0.53
2017-02-09T03:01:30.800Z,-0.65
2017-02-09T03:02:11.459Z,-0.54
2017-02-09T03:02:52.108Z,-0.59
2017-02-09T03:03:32.761Z,-0.56
2017-02-09T03:04:13.404Z,-0.62
2017-02-09T03:04:54.065Z,-0.57
2017-02-09T03:05:34.720Z,-0.59
2017-02-09T03:06:15.367Z,-0.67
2017-02-09T03:06:56.026Z,-0.59
2017-02-09T03:07:36.676Z,-0.67
2017-02-09T03:08:17.328Z,-0.57
2017-02-09T03:08:57.980Z,-0.62
2017-02-09T03:09:38.630Z,-0.56
2017-02-09T03:10:19.289Z,-0.53
2017-02-09T03:10:59.938Z,-0.53
2017-02-09T03:11:40.586Z,-0.54
2017-02-09T03:12:21.235Z,-0.53
2017-02-09T03:13:01.902Z,-0.57
2017-02-09T03:13:42.545Z,-0.57
2017-02-09T03:14:23.265Z,-0.5
2017-02-09T03:15:03.855Z,-0.53
2017-02-09T03:15:44.503Z,-0.54
2017-02-09T03:16:25.156Z,-0.57
2017-02-09T03:17:05.797Z,-0.57
2017-02-09T03:17:46.407Z,-0.54
2017-02-09T03:18:27.051Z,-0.54
2017-02-09T03:19:07.703Z,-0.53
2017-02-09T03:19:48.364Z,-0.57
2017-02-09T03:20:28.931Z,-0.56
2017-02-09T03:21:09.529Z,-0.61
2017-02-09T03:21:50.166Z,-0.62
2017-02-09T03:22:30.735Z,-0.5
2017-02-09T03:23:11.385Z,-0.52
2017-02-09T03:23:52.019Z,-0.5
2017-02-09T03:24:32.595Z,-0.62
2017-02-09T03:25:13.237Z,-0.56
2017-02-09T03:25:53.888Z,-0.57
2017-02-09T03:26:34.546Z,-0.53
2017-02-09T03:27:15.203Z,-0.57
2017-02-09T03:27:55.846Z,-0.56
2017-02-09T03:28:36.502Z,-0.54
2017-02-09T03:29:17.149Z,-0.59
2017-02-09T03:29:57.811Z,-0.57
2017-02-09T03:30:38.400Z,-0.54
2017-02-09T03:31:19.000Z,-0.57
2017-02-09T03:31:59.560Z,-0.56
2017-02-09T03:32:40.214Z,-0.57
2017-02-09T03:33:20.814Z,-0.59
2017-02-09T03:34:01.418Z,-0.54
2017-02-09T03:34:41.951Z,-0.5
2017-02-09T03:35:22.526Z,-0.67
2017-02-09T03:36:03.114Z,-0.56
2017-02-09T03:36:43.712Z,-0.64
2017-02-09T03:37:24.279Z,-0.57
2017-02-09T03:38:04.848Z,-0.62
2017-02-09T03:38:45.443Z,-0.57
2017-02-09T03:39:26.017Z,-0.57
2017-02-09T03:40:06.563Z,-0.59
2017-02-09T03:40:47.135Z,-0.57
2017-02-09T03:41:27.706Z,-0.61
2017-02-09T03:42:08.271Z,-0.61
2017-02-09T03:42:48.845Z,-0.72
2017-02-09T03:43:29.400Z,-0.65
2017-02-09T03:44:09.963Z,-0.61
2017-02-09T03:44:50.554Z,-0.62
2017-02-09T03:45:31.104Z,-0.56
2017-02-09T03:46:11.654Z,-0.61
2017-02-09T03:46:52.219Z,-0.64
2017-02-09T03:47:32.792Z,-0.61
2017-02-09T03:48:13.364Z,-0.67
2017-02-09T03:48:53.930Z,-0.65
2017-02-09T03:49:34.500Z,-0.59
2017-02-09T03:50:15.082Z,-0.67
2017-02-09T03:50:55.648Z,-0.56
2017-02-09T03:51:36.222Z,-0.71
2017-02-09T03:52:16.760Z,-0.7
2017-02-09T03:52:57.345Z,-0.67
2017-02-09T03:53:37.929Z,-0.68
2017-02-09T03:54:18.500Z,-0.72
2017-02-09T03:54:59.062Z,-0.68
2017-02-09T03:55:39.639Z,-0.72
2017-02-09T03:56:20.201Z,-0.68
2017-02-09T03:57:00.775Z,-0.71
2017-02-09T03:57:42.342Z,-0.68
2017-02-09T03:58:22.917Z,-0.72
2017-02-09T03:59:03.479Z,-0.67
2017-02-09T03:59:44.058Z,-0.65
2017-02-09T04:00:24.604Z,-0.67
2017-02-09T04:01:05.174Z,-0.65
2017-02-09T04:01:45.753Z,-0.7
2017-02-09T04:02:26.323Z,-0.67
2017-02-09T04:03:06.882Z,-0.65
2017-02-09T04:03:47.446Z,-0.7
2017-02-09T04:04:27.997Z,-0.67
2017-02-09T04:05:08.554Z,-0.68
2017-02-09T04:05:49.124Z,-0.67
2017-02-09T04:06:29.703Z,-0.68
2017-02-09T04:07:10.301Z,-0.67
2017-02-09T04:07:50.864Z,-0.74
2017-02-09T04:08:31.428Z,-0.82
2017-02-09T04:09:12.003Z,-0.7
2017-02-09T04:09:52.572Z,-0.67
2017-02-09T04:10:33.131Z,-0.71
2017-02-09T04:11:13.685Z,-0.71
2017-02-09T04:11:54.269Z,-0.72
2017-02-09T04:12:34.837Z,-0.65
2017-02-09T04:13:15.437Z,-0.74
2017-02-09T04:13:56.024Z,-0.74
2017-02-09T04:14:36.582Z,-0.8
2017-02-09T04:15:17.161Z,-0.71
2017-02-09T04:15:58.629Z,-0.71
2017-02-09T04:16:39.202Z,-0.75
2017-02-09T04:17:19.780Z,-0.75
2017-02-09T04:18:00.341Z,-0.7
2017-02-09T04:18:40.908Z,-0.71
2017-02-09T04:19:21.489Z,-0.78
2017-02-09T04:20:02.054Z,-0.72
2017-02-09T04:20:42.634Z,-0.8
2017-02-09T04:21:23.204Z,-0.8
2017-02-09T04:22:03.807Z,-0.74
2017-02-09T04:22:44.392Z,-0.8
2017-02-09T04:23:24.961Z,-0.7
2017-02-09T04:24:05.517Z,-0.72
2017-02-09T04:24:47.110Z,-0.75
2017-02-09T04:25:27.686Z,-0.71
2017-02-09T04:26:08.257Z,-0.75
2017-02-09T04:26:48.838Z,-0.71
2017-02-09T04:27:29.400Z,-0.72
2017-02-09T04:28:09.965Z,-0.72
2017-02-09T04:28:50.549Z,-0.71
2017-02-09T04:29:32.115Z,-0.75
2017-02-09T04:30:12.696Z,-0.71
2017-02-09T04:30:54.128Z,-0.75
2017-02-09T04:31:34.702Z,-0.75
2017-02-09T04:32:15.239Z,-0.75
2017-02-09T04:32:55.824Z,-0.75
2017-02-09T04:33:36.456Z,-0.78
2017-02-09T04:34:17.022Z,-0.75
2017-02-09T04:34:57.614Z,-0.78
2017-02-09T04:35:38.185Z,-0.77
2017-02-09T04:36:18.764Z,-0.77
2017-02-09T04:36:59.313Z,-0.72
2017-02-09T04:37:39.879Z,-0.74
2017-02-09T04:38:20.453Z,-0.89
2017-02-09T04:39:01.016Z,-0.83
2017-02-09T04:39:41.588Z,-0.77
2017-02-09T04:40:22.167Z,-0.78
2017-02-09T04:41:02.738Z,-0.75
2017-02-09T04:41:43.296Z,-0.78
2017-02-09T04:42:23.924Z,-0.77
2017-02-09T04:43:04.464Z,-0.78
2017-02-09T04:43:45.059Z,-0.8
2017-02-09T04:44:25.612Z,-0.78
2017-02-09T04:45:06.178Z,-0.75
2017-02-09T04:45:46.744Z,-0.78
2017-02-09T04:46:27.315Z,-0.75
2017-02-09T04:47:07.884Z,-0.82
2017-02-09T04:47:48.453Z,-0.78
2017-02-09T04:48:29.034Z,-0.75
2017-02-09T04:49:09.589Z,-0.75
2017-02-09T04:49:50.173Z,-0.72
2017-02-09T04:50:30.738Z,-0.78
2017-02-09T04:51:11.314Z,-0.75
2017-02-09T04:51:51.872Z,-0.75
2017-02-09T04:52:32.443Z,-0.77
2017-02-09T04:53:13.016Z,-0.85
2017-02-09T04:53:53.598Z,-0.77
2017-02-09T04:54:34.168Z,-0.78
2017-02-09T04:55:14.733Z,-0.78
2017-02-09T04:55:55.309Z,-0.71
2017-02-09T04:56:35.884Z,-0.71
2017-02-09T04:57:16.462Z,-0.75
2017-02-09T04:57:57.067Z,-0.78
2017-02-09T04:58:37.646Z,-0.77
2017-02-09T04:59:18.223Z,-0.71
2017-02-09T04:59:58.793Z,-0.71
2017-02-09T05:00:39.375Z,-0.74
2017-02-09T05:01:19.960Z,-0.74
2017-02-09T05:02:00.534Z,-0.8
2017-02-09T05:02:41.096Z,-0.71
2017-02-09T05:03:21.661Z,-0.74
2017-02-09T05:04:02.237Z,-0.83
2017-02-09T05:04:42.805Z,-0.71
2017-02-09T05:05:23.372Z,-0.8
2017-02-09T05:06:03.934Z,-0.72
2017-02-09T05:06:44.502Z,-0.77
2017-02-09T05:07:25.101Z,-0.78
2017-02-09T05:08:05.679Z,-0.75
2017-02-09T05:08:46.244Z,-0.75
2017-02-09T05:09:26.815Z,-0.75
2017-02-09T05:10:07.385Z,-0.72
2017-02-09T05:10:47.947Z,-0.74
2017-02-09T05:11:28.524Z,-0.77
2017-02-09T05:12:09.098Z,-0.8
2017-02-09T05:12:49.654Z,-0.8
2017-02-09T05:13:30.225Z,-0.8
2017-02-09T05:14:10.778Z,-0.77
2017-02-09T05:14:51.350Z,-0.7
2017-02-09T05:15:31.930Z,-0.74
2017-02-09T05:16:12.484Z,-0.75
2017-02-09T05:16:53.071Z,-0.72
2017-02-09T05:17:33.634Z,-0.78
2017-02-09T05:18:14.283Z,-0.74
2017-02-09T05:18:54.858Z,-0.8
2017-02-09T05:19:35.435Z,-0.78
2017-02-09T05:20:16.010Z,-0.77
2017-02-09T05:20:56.579Z,-0.78
2017-02-09T05:21:37.187Z,-0.75
2017-02-09T05:22:17.761Z,-0.78
2017-02-09T05:22:58.322Z,-0.82
2017-02-09T05:23:38.906Z,-0.77
2017-02-09T05:24:19.493Z,-0.72
2017-02-09T05:25:00.065Z,-0.85
2017-02-09T05:25:40.656Z,-0.8
2017-02-09T05:26:21.230Z,-0.75
2017-02-09T05:27:01.797Z,-0.85
2017-02-09T05:27:42.381Z,-0.74
2017-02-09T05:28:22.953Z,-0.75
2017-02-09T05:29:03.535Z,-0.75
2017-02-09T05:29:44.122Z,-0.82
2017-02-09T05:30:24.683Z,-0.82
2017-02-09T05:31:05.265Z,-0.82
2017-02-09T05:31:45.824Z,-0.77
2017-02-09T05:32:26.400Z,-0.82
2017-02-09T05:33:06.986Z,-0.77
2017-02-09T05:33:47.543Z,-0.77
2017-02-09T05:34:28.120Z,-0.8
2017-02-09T05:35:08.699Z,-0.85
2017-02-09T05:35:49.266Z,-0.86
2017-02-09T05:36:29.831Z,-0.85
2017-02-09T05:37:10.404Z,-0.86
2017-02-09T05:37:50.982Z,-0.83
2017-02-09T05:38:31.548Z,-0.89
2017-02-09T05:39:12.119Z,-0.91
2017-02-09T05:39:52.688Z,-0.83
2017-02-09T05:40:33.254Z,-0.86
2017-02-09T05:41:13.790Z,-0.83
2017-02-09T05:41:54.373Z,-0.86
2017-02-09T05:42:34.915Z,-0.85
2017-02-09T05:43:15.504Z,-0.9
2017-02-09T05:43:56.074Z,-0.86
2017-02-09T05:44:36.662Z,-0.83
2017-02-09T05:45:17.221Z,-0.91
2017-02-09T05:45:57.797Z,-0.86
2017-02-09T05:46:38.377Z,-0.85
2017-02-09T05:47:18.945Z,-0.86
2017-02-09T05:47:59.503Z,-0.89
2017-02-09T05:48:40.079Z,-0.9
2017-02-09T05:49:22.650Z,-0.9
2017-02-09T05:50:03.224Z,-0.9
2017-02-09T05:50:43.833Z,-0.8
2017-02-09T05:51:24.404Z,-0.85
2017-02-09T05:52:04.963Z,-0.93
2017-02-09T05:52:45.527Z,-0.85
2017-02-09T05:53:27.109Z,-0.85
2017-02-09T05:54:08.673Z,-0.9
2017-02-09T05:54:49.242Z,-0.99
2017-02-09T05:55:29.996Z,-0.85
2017-02-09T05:56:14.380Z,-0.85
2017-02-09T05:56:54.947Z,-0.99
2017-02-09T05:57:35.518Z,-1.02
2017-02-09T05:58:16.080Z,-0.93
2017-02-09T05:58:56.656Z,-0.91
2017-02-09T05:59:37.233Z,-0.96
2017-02-09T06:00:17.802Z,-0.99
2017-02-09T06:00:58.372Z,-0.97
2017-02-09T06:01:38.944Z,-0.99
2017-02-09T06:02:19.515Z,-0.99
2017-02-09T06:03:00.085Z,-0.94
2017-02-09T06:03:40.650Z,-0.99
2017-02-09T06:04:21.284Z,-0.94
2017-02-09T06:05:01.860Z,-1.01
2017-02-09T06:05:42.431Z,-0.97
2017-02-09T06:06:22.999Z,-0.94
2017-02-09T06:07:03.570Z,-1.01
2017-02-09T06:07:44.146Z,-0.99
2017-02-09T06:08:24.720Z,-0.99
2017-02-09T06:09:05.279Z,-0.97
2017-02-09T06:09:45.889Z,-0.97
2017-02-09T06:10:26.504Z,-0.91
2017-02-09T06:11:07.077Z,-0.97
2017-02-09T06:11:47.653Z,-0.97
2017-02-09T06:12:28.234Z,-0.99
2017-02-09T06:13:08.795Z,-1.01
2017-02-09T06:13:49.367Z,-0.94
2017-02-09T06:14:29.937Z,-0.97
2017-02-09T06:15:10.512Z,-0.96
2017-02-09T06:15:51.103Z,-1.01
2017-02-09T06:16:31.677Z,-1.02
2017-02-09T06:17:12.261Z,-0.93
2017-02-09T06:17:52.813Z,-0.97
2017-02-09T06:18:33.389Z,-0.91
2017-02-09T06:19:13.954Z,-0.97
2017-02-09T06:19:54.565Z,-0.94
2017-02-09T06:20:35.139Z,-0.99
2017-02-09T06:21:15.848Z,-0.97
2017-02-09T06:21:56.422Z,-0.94
2017-02-09T06:22:36.999Z,-0.97
2017-02-09T06:23:17.644Z,-0.99
2017-02-09T06:23:58.196Z,-0.99
2017-02-09T06:24:38.748Z,-0.96
2017-02-09T06:25:19.320Z,-0.96
2017-02-09T06:25:59.904Z,-0.94
2017-02-09T06:26:40.472Z,-0.99
2017-02-09T06:27:21.034Z,-0.99
2017-02-09T06:28:01.612Z,-0.97
2017-02-09T06:28:42.187Z,-0.93
2017-02-09T06:29:22.758Z,-1.04
2017-02-09T06:30:03.337Z,-0.97
2017-02-09T06:30:43.907Z,-0.99
2017-02-09T06:31:24.470Z,-0.94
2017-02-09T06:32:05.042Z,-0.97
2017-02-09T06:32:45.644Z,-0.94
2017-02-09T06:33:26.191Z,-0.96
2017-02-09T06:34:06.786Z,-0.93
2017-02-09T06:34:47.370Z,-0.96
2017-02-09T06:35:27.964Z,-0.99
2017-02-09T06:36:08.545Z,-0.91
2017-02-09T06:36:49.190Z,-1.02
2017-02-09T06:37:29.767Z,-0.94
2017-02-09T06:38:10.347Z,-0.94
2017-02-09T06:38:50.916Z,-0.97
2017-02-09T06:39:31.488Z,-0.99
2017-02-09T06:40:12.044Z,-0.99
2017-02-09T06:40:52.630Z,-0.94
2017-02-09T06:41:33.227Z,-0.94
2017-02-09T06:42:13.791Z,-1.01
2017-02-09T06:42:54.375Z,-0.94
2017-02-09T06:43:34.962Z,-0.93
2017-02-09T06:44:15.532Z,-0.99
2017-02-09T06:44:56.106Z,-1.01
2017-02-09T06:45:36.666Z,-0.99
2017-02-09T06:46:17.297Z,-1.02
2017-02-09T06:46:57.855Z,-0.99
2017-02-09T06:47:38.431Z,-0.99
2017-02-09T06:48:19.005Z,-0.99
2017-02-09T06:48:59.586Z,-0.97
2017-02-09T06:49:40.142Z,-0.97
2017-02-09T06:50:20.711Z,-0.99
2017-02-09T06:51:01.305Z,-0.94
2017-02-09T06:51:41.869Z,-0.99
2017-02-09T06:52:22.452Z,-0.97
2017-02-09T06:53:03.033Z,-0.94
2017-02-09T06:53:43.608Z,-0.99
2017-02-09T06:54:24.183Z,-0.99
2017-02-09T06:55:04.776Z,-0.96
2017-02-09T06:55:45.466Z,-0.94
2017-02-09T06:56:26.092Z,-1.01
2017-02-09T06:57:06.660Z,-0.94
2017-02-09T06:57:47.254Z,-0.99
2017-02-09T06:58:27.846Z,-0.99
2017-02-09T06:59:08.416Z,-1.01
2017-02-09T06:59:49.075Z,-1.02
2017-02-09T07:00:29.649Z,-0.97
2017-02-09T07:01:10.354Z,-0.99
2017-02-09T07:01:50.919Z,-1.01
2017-02-09T07:02:31.565Z,-0.96
2017-02-09T07:03:12.166Z,-0.94
2017-02-09T07:03:52.862Z,-1.02
2017-02-09T07:04:33.429Z,-0.97
2017-02-09T07:05:14.115Z,-0.99
2017-02-09T07:05:54.780Z,-0.99
2017-02-09T07:06:35.431Z,-0.99
2017-02-09T07:07:16.075Z,-0.96
2017-02-09T07:07:56.736Z,-1.01
2017-02-09T07:08:37.390Z,-0.94
2017-02-09T07:09:18.035Z,-0.94
2017-02-09T07:09:58.694Z,-0.99
2017-02-09T07:10:39.348Z,-0.96
2017-02-09T07:11:19.961Z,-0.96
2017-02-09T07:12:00.634Z,-1.01
2017-02-09T07:12:41.284Z,-0.96
2017-02-09T07:13:21.915Z,-0.96
2017-02-09T07:14:02.580Z,-0.9
2017-02-09T07:14:43.224Z,-0.91
2017-02-09T07:15:23.890Z,-0.91
2017-02-09T07:16:04.511Z,-0.96
2017-02-09T07:16:45.096Z,-0.83
2017-02-09T07:17:25.759Z,-0.97
2017-02-09T07:18:06.365Z,-0.91
2017-02-09T07:18:46.920Z,-0.89
2017-02-09T07:19:27.596Z,-0.89
2017-02-09T07:20:08.224Z,-0.89
2017-02-09T07:20:48.798Z,-0.96
2017-02-09T07:21:29.449Z,-1.01
2017-02-09T07:22:10.104Z,-0.89
2017-02-09T07:22:50.762Z,-0.83
2017-02-09T07:23:31.410Z,-0.89
2017-02-09T07:24:12.056Z,-0.93
2017-02-09T07:24:52.720Z,-0.83
2017-02-09T07:25:33.370Z,-0.8
2017-02-09T07:26:13.952Z,-0.89
2017-02-09T07:26:54.540Z,-0.86
2017-02-09T07:27:35.093Z,-0.86
2017-02-09T07:28:15.774Z,-0.86
2017-02-09T07:28:56.471Z,-0.83
2017-02-09T07:29:37.191Z,-0.9
2017-02-09T07:30:17.816Z,-0.83
2017-02-09T07:30:58.505Z,-0.89
2017-02-09T07:31:39.080Z,-0.91
2017-02-09T07:32:19.694Z,-0.85
2017-02-09T07:33:00.329Z,-0.77
2017-02-09T07:33:40.986Z,-0.91
2017-02-09T07:34:21.771Z,-0.8
2017-02-09T07:35:02.517Z,-0.8
2017-02-09T07:35:43.488Z,-0.85
2017-02-09T07:36:29.012Z,-0.77
2017-02-09T07:37:09.590Z,-0.74
2017-02-09T07:37:50.397Z,-0.77
2017-02-09T07:38:31.094Z,-0.85
2017-02-09T07:39:11.762Z,-0.91
2017-02-09T07:39:52.413Z,-0.83
2017-02-09T07:40:33.170Z,-0.91
2017-02-09T07:41:13.861Z,-0.86
2017-02-09T07:41:54.471Z,-0.86
2017-02-09T07:42:35.331Z,-0.94
2017-02-09T07:43:15.977Z,-0.8
2017-02-09T07:43:56.718Z,-0.75
2017-02-09T07:44:37.433Z,-0.82
2017-02-09T07:45:18.140Z,-0.75
2017-02-09T07:45:58.827Z,-0.75
2017-02-09T07:46:39.424Z,-0.77
2017-02-09T07:47:19.991Z,-0.78
2017-02-09T07:48:00.648Z,-0.77
2017-02-09T07:48:41.234Z,-0.82
2017-02-09T07:49:21.931Z,-0.78
2017-02-09T07:50:02.538Z,-0.8
2017-02-09T07:50:43.280Z,-0.78
2017-02-09T07:51:23.951Z,-0.78
2017-02-09T07:52:04.811Z,-0.77
2017-02-09T07:52:45.560Z,-0.77
2017-02-09T07:53:26.322Z,-0.71
2017-02-09T07:54:07.299Z,-0.72
2017-02-09T07:54:47.935Z,-0.71
2017-02-09T07:55:28.578Z,-0.75
2017-02-09T07:56:09.204Z,-0.75
2017-02-09T07:56:49.893Z,-0.71
2017-02-09T07:57:30.639Z,-0.71
2017-02-09T07:58:11.471Z,-0.8
2017-02-09T07:58:52.123Z,-0.8
2017-02-09T07:59:32.804Z,-0.68
2017-02-09T08:00:13.381Z,-0.71
2017-02-09T08:00:54.053Z,-0.72
2017-02-09T08:01:34.648Z,-0.61
2017-02-09T08:02:15.280Z,-0.7
2017-02-09T08:02:55.948Z,-0.71
2017-02-09T08:03:36.573Z,-0.67
2017-02-09T08:04:17.142Z,-0.65
2017-02-09T08:04:57.795Z,-0.68
2017-02-09T08:05:38.378Z,-0.62
2017-02-09T08:06:19.080Z,-0.71
2017-02-09T08:06:59.652Z,-0.68
2017-02-09T08:07:40.305Z,-0.68
2017-02-09T08:08:20.889Z,-0.67
2017-02-09T08:09:01.485Z,-0.71
2017-02-09T08:09:42.047Z,-0.67
2017-02-09T08:10:22.700Z,-0.71
2017-02-09T08:11:03.286Z,-0.67
2017-02-09T08:11:43.945Z,-0.72
2017-02-09T08:12:24.576Z,-0.68
2017-02-09T08:13:05.217Z,-0.68
2017-02-09T08:13:45.865Z,-0.7
2017-02-09T08:14:26.513Z,-0.67
2017-02-09T08:15:07.179Z,-0.72
2017-02-09T08:15:47.831Z,-0.74
2017-02-09T08:16:28.412Z,-0.7
2017-02-09T08:17:10.038Z,-0.68
2017-02-09T08:17:50.639Z,-0.72
2017-02-09T08:18:31.262Z,-0.7
2017-02-09T08:19:11.844Z,-0.72
2017-02-09T08:19:52.481Z,-0.57
2017-02-09T08:20:33.023Z,-0.64
2017-02-09T08:21:13.667Z,-0.62
2017-02-09T08:21:54.301Z,-0.64
2017-02-09T08:22:34.918Z,-0.65
2017-02-09T08:23:15.522Z,-0.56
2017-02-09T08:23:56.156Z,-0.62
2017-02-09T08:24:36.708Z,-0.54
2017-02-09T08:25:17.279Z,-0.62
2017-02-09T08:25:57.909Z,-0.56
2017-02-09T08:26:39.139Z,-0.53
2017-02-09T08:27:19.728Z,-0.56
2017-02-09T08:28:00.407Z,-0.56
2017-02-09T08:28:41.039Z,-0.54
2017-02-09T08:29:21.688Z,-0.41
2017-02-09T08:30:02.346Z,-0.52
2017-02-09T08:30:43.013Z,-0.49
2017-02-09T08:31:23.546Z,-0.47
2017-02-09T08:32:04.217Z,-0.36
2017-02-09T08:32:44.853Z,-0.41
2017-02-09T08:33:25.432Z,-0.28
2017-02-09T08:34:06.067Z,-0.35
2017-02-09T08:34:46.711Z,-0.41
2017-02-09T08:35:27.256Z,-0.29
2017-02-09T08:36:07.936Z,-0.34
2017-02-09T08:36:48.622Z,-0.32
2017-02-09T08:37:29.217Z,-0.29
2017-02-09T08:38:09.789Z,-0.35
2017-02-09T08:38:50.440Z,-0.32
2017-02-09T08:39:31.025Z,-0.32
2017-02-09T08:40:11.626Z,-0.31
2017-02-09T08:40:52.193Z,-0.39
2017-02-09T08:41:32.846Z,-0.46
2017-02-09T08:42:13.477Z,-0.36
2017-02-09T08:42:54.102Z,-0.46
2017-02-09T08:43:34.719Z,-0.49
2017-02-09T08:44:15.338Z,-0.44
2017-02-09T08:44:55.910Z,-0.44